sensor_id;sensor_type;location;lat;lon;timestamp;P1;durP1;ratioP1;P2;durP2;ratioP2
24585;SDS011;12743;52.262;6.172;2024-01-15T00:02:02;8.05;;;0.50;;
24585;SDS011;12743;52.262;6.172;2024-01-15T00:04:29;7.80;;;0.60;;
24585;SDS011;12743;52.262;6.172;2024-01-15T00:06:56;10.77;;;0.95;;
24585;SDS011;12743;52.262;6.172;2024-01-15T00:09:23;4.68;;;0.50;;
24585;SDS011;12743;52.262;6.172;2024-01-15T00:11:50;10.95;;;0.80;;
24585;SDS011;12743;52.262;6.172;2024-01-15T00:14:16;7.43;;;0.52;;
24585;SDS011;12743;52.262;6.172;2024-01-15T00:16:46;6.55;;;1.00;;
24585;SDS011;12743;52.262;6.172;2024-01-15T00:19:15;6.15;;;1.08;;
24585;SDS011;12743;52.262;6.172;2024-01-15T00:21:42;6.18;;;0.50;;
24585;SDS011;12743;52.262;6.172;2024-01-15T00:24:09;6.22;;;0.63;;
24585;SDS011;12743;52.262;6.172;2024-01-15T00:26:36;9.52;;;0.98;;
24585;SDS011;12743;52.262;6.172;2024-01-15T00:29:03;6.13;;;0.60;;
24585;SDS011;12743;52.262;6.172;2024-01-15T00:31:30;7.88;;;0.63;;
24585;SDS011;12743;52.262;6.172;2024-01-15T00:33:56;6.60;;;0.68;;
24585;SDS011;12743;52.262;6.172;2024-01-15T00:36:26;6.13;;;0.80;;
24585;SDS011;12743;52.262;6.172;2024-01-15T00:38:53;14.43;;;0.75;;
24585;SDS011;12743;52.262;6.172;2024-01-15T00:41:20;6.28;;;0.73;;
24585;SDS011;12743;52.262;6.172;2024-01-15T00:43:47;6.47;;;0.60;;
24585;SDS011;12743;52.262;6.172;2024-01-15T00:46:15;7.85;;;0.60;;
24585;SDS011;12743;52.262;6.172;2024-01-15T00:48:42;6.45;;;0.82;;
24585;SDS011;12743;52.262;6.172;2024-01-15T00:51:09;9.77;;;1.05;;
24585;SDS011;12743;52.262;6.172;2024-01-15T00:53:35;9.15;;;0.73;;
24585;SDS011;12743;52.262;6.172;2024-01-15T00:56:03;10.32;;;0.88;;
24585;SDS011;12743;52.262;6.172;2024-01-15T00:58:29;8.10;;;0.50;;
24585;SDS011;12743;52.262;6.172;2024-01-15T01:00:56;6.60;;;0.70;;
24585;SDS011;12743;52.262;6.172;2024-01-15T01:03:23;7.70;;;1.00;;
24585;SDS011;12743;52.262;6.172;2024-01-15T01:05:50;6.88;;;0.60;;
24585;SDS011;12743;52.262;6.172;2024-01-15T01:08:17;6.75;;;0.47;;
24585;SDS011;12743;52.262;6.172;2024-01-15T01:10:43;10.35;;;0.90;;
24585;SDS011;12743;52.262;6.172;2024-01-15T01:13:10;7.75;;;0.40;;
24585;SDS011;12743;52.262;6.172;2024-01-15T01:15:37;5.85;;;0.52;;
24585;SDS011;12743;52.262;6.172;2024-01-15T01:18:05;7.93;;;1.10;;
24585;SDS011;12743;52.262;6.172;2024-01-15T01:20:32;5.82;;;0.47;;
24585;SDS011;12743;52.262;6.172;2024-01-15T01:22:59;7.28;;;0.45;;
24585;SDS011;12743;52.262;6.172;2024-01-15T01:25:26;12.80;;;0.95;;
24585;SDS011;12743;52.262;6.172;2024-01-15T01:27:53;6.68;;;0.65;;
24585;SDS011;12743;52.262;6.172;2024-01-15T01:30:20;8.82;;;1.05;;
24585;SDS011;12743;52.262;6.172;2024-01-15T01:32:47;11.85;;;0.60;;
24585;SDS011;12743;52.262;6.172;2024-01-15T01:35:13;7.38;;;0.82;;
24585;SDS011;12743;52.262;6.172;2024-01-15T01:37:40;7.00;;;0.77;;
24585;SDS011;12743;52.262;6.172;2024-01-15T01:40:07;9.25;;;0.52;;
24585;SDS011;12743;52.262;6.172;2024-01-15T01:42:34;9.85;;;0.60;;
24585;SDS011;12743;52.262;6.172;2024-01-15T01:45:01;9.13;;;0.70;;
24585;SDS011;12743;52.262;6.172;2024-01-15T01:47:27;9.50;;;0.75;;
24585;SDS011;12743;52.262;6.172;2024-01-15T01:49:54;11.00;;;0.73;;
24585;SDS011;12743;52.262;6.172;2024-01-15T01:52:21;8.55;;;0.70;;
24585;SDS011;12743;52.262;6.172;2024-01-15T01:54:48;8.73;;;0.47;;
24585;SDS011;12743;52.262;6.172;2024-01-15T01:57:15;9.77;;;0.70;;
24585;SDS011;12743;52.262;6.172;2024-01-15T01:59:41;8.88;;;0.75;;
24585;SDS011;12743;52.262;6.172;2024-01-15T02:02:08;8.80;;;0.90;;
24585;SDS011;12743;52.262;6.172;2024-01-15T02:04:35;10.85;;;0.50;;
24585;SDS011;12743;52.262;6.172;2024-01-15T02:07:03;12.05;;;0.80;;
24585;SDS011;12743;52.262;6.172;2024-01-15T02:09:30;8.52;;;0.60;;
24585;SDS011;12743;52.262;6.172;2024-01-15T02:11:58;7.80;;;0.98;;
24585;SDS011;12743;52.262;6.172;2024-01-15T02:14:25;10.10;;;0.80;;
24585;SDS011;12743;52.262;6.172;2024-01-15T02:16:52;5.50;;;0.43;;
24585;SDS011;12743;52.262;6.172;2024-01-15T02:19:18;5.10;;;0.38;;
24585;SDS011;12743;52.262;6.172;2024-01-15T02:21:45;10.68;;;0.68;;
24585;SDS011;12743;52.262;6.172;2024-01-15T02:24:12;10.55;;;1.00;;
24585;SDS011;12743;52.262;6.172;2024-01-15T02:26:39;11.27;;;0.90;;
24585;SDS011;12743;52.262;6.172;2024-01-15T02:29:09;7.25;;;0.40;;
24585;SDS011;12743;52.262;6.172;2024-01-15T02:31:36;9.50;;;0.30;;
24585;SDS011;12743;52.262;6.172;2024-01-15T02:34:03;13.15;;;0.77;;
24585;SDS011;12743;52.262;6.172;2024-01-15T02:36:30;5.15;;;0.50;;
24585;SDS011;12743;52.262;6.172;2024-01-15T02:38:57;4.50;;;0.47;;
24585;SDS011;12743;52.262;6.172;2024-01-15T02:41:24;11.50;;;0.40;;
24585;SDS011;12743;52.262;6.172;2024-01-15T02:43:50;8.80;;;0.47;;
24585;SDS011;12743;52.262;6.172;2024-01-15T02:46:17;16.02;;;0.80;;
24585;SDS011;12743;52.262;6.172;2024-01-15T02:48:44;7.10;;;0.80;;
24585;SDS011;12743;52.262;6.172;2024-01-15T02:51:11;11.25;;;0.38;;
24585;SDS011;12743;52.262;6.172;2024-01-15T02:53:38;8.43;;;0.30;;
24585;SDS011;12743;52.262;6.172;2024-01-15T02:56:06;9.55;;;0.77;;
24585;SDS011;12743;52.262;6.172;2024-01-15T02:58:33;8.38;;;0.50;;
24585;SDS011;12743;52.262;6.172;2024-01-15T03:01:00;7.68;;;0.60;;
24585;SDS011;12743;52.262;6.172;2024-01-15T03:03:27;8.23;;;1.23;;
24585;SDS011;12743;52.262;6.172;2024-01-15T03:05:54;10.57;;;0.40;;
24585;SDS011;12743;52.262;6.172;2024-01-15T03:08:21;11.45;;;0.65;;
24585;SDS011;12743;52.262;6.172;2024-01-15T03:10:49;5.85;;;0.20;;
24585;SDS011;12743;52.262;6.172;2024-01-15T03:13:16;6.68;;;0.70;;
24585;SDS011;12743;52.262;6.172;2024-01-15T03:15:43;10.93;;;0.73;;
24585;SDS011;12743;52.262;6.172;2024-01-15T03:18:10;6.97;;;0.15;;
24585;SDS011;12743;52.262;6.172;2024-01-15T03:20:37;6.93;;;0.50;;
24585;SDS011;12743;52.262;6.172;2024-01-15T03:23:03;3.90;;;0.20;;
24585;SDS011;12743;52.262;6.172;2024-01-15T03:25:30;5.53;;;0.93;;
24585;SDS011;12743;52.262;6.172;2024-01-15T03:27:57;4.55;;;0.10;;
24585;SDS011;12743;52.262;6.172;2024-01-15T03:30:23;10.93;;;0.50;;
24585;SDS011;12743;52.262;6.172;2024-01-15T03:32:50;13.35;;;1.13;;
24585;SDS011;12743;52.262;6.172;2024-01-15T03:35:17;12.43;;;0.35;;
24585;SDS011;12743;52.262;6.172;2024-01-15T03:37:44;10.07;;;0.40;;
24585;SDS011;12743;52.262;6.172;2024-01-15T03:40:10;5.20;;;0.20;;
24585;SDS011;12743;52.262;6.172;2024-01-15T03:42:37;6.25;;;0.30;;
24585;SDS011;12743;52.262;6.172;2024-01-15T03:45:04;9.02;;;0.93;;
24585;SDS011;12743;52.262;6.172;2024-01-15T03:47:31;7.00;;;0.35;;
24585;SDS011;12743;52.262;6.172;2024-01-15T03:49:58;8.55;;;0.30;;
24585;SDS011;12743;52.262;6.172;2024-01-15T03:52:25;7.35;;;0.50;;
24585;SDS011;12743;52.262;6.172;2024-01-15T03:54:51;7.38;;;0.50;;
24585;SDS011;12743;52.262;6.172;2024-01-15T03:57:18;8.05;;;0.35;;
24585;SDS011;12743;52.262;6.172;2024-01-15T03:59:45;7.20;;;0.32;;
24585;SDS011;12743;52.262;6.172;2024-01-15T04:02:13;5.50;;;0.63;;
24585;SDS011;12743;52.262;6.172;2024-01-15T04:04:41;7.10;;;0.40;;
24585;SDS011;12743;52.262;6.172;2024-01-15T04:07:09;7.95;;;0.40;;
24585;SDS011;12743;52.262;6.172;2024-01-15T04:09:36;5.00;;;0.38;;
24585;SDS011;12743;52.262;6.172;2024-01-15T04:12:03;8.60;;;0.40;;
24585;SDS011;12743;52.262;6.172;2024-01-15T04:14:30;14.00;;;0.65;;
24585;SDS011;12743;52.262;6.172;2024-01-15T04:16:57;5.45;;;0.28;;
24585;SDS011;12743;52.262;6.172;2024-01-15T04:19:24;6.80;;;0.35;;
24585;SDS011;12743;52.262;6.172;2024-01-15T04:21:50;4.75;;;0.20;;
24585;SDS011;12743;52.262;6.172;2024-01-15T04:24:17;6.55;;;0.57;;
24585;SDS011;12743;52.262;6.172;2024-01-15T04:26:45;7.05;;;0.30;;
24585;SDS011;12743;52.262;6.172;2024-01-15T04:29:12;7.13;;;0.40;;
24585;SDS011;12743;52.262;6.172;2024-01-15T04:31:38;7.93;;;0.35;;
24585;SDS011;12743;52.262;6.172;2024-01-15T04:34:05;5.55;;;0.32;;
24585;SDS011;12743;52.262;6.172;2024-01-15T04:36:37;6.18;;;0.40;;
24585;SDS011;12743;52.262;6.172;2024-01-15T04:39:05;5.22;;;0.30;;
24585;SDS011;12743;52.262;6.172;2024-01-15T04:41:32;6.22;;;0.20;;
24585;SDS011;12743;52.262;6.172;2024-01-15T04:43:58;4.32;;;0.20;;
24585;SDS011;12743;52.262;6.172;2024-01-15T04:46:26;3.17;;;0.10;;
24585;SDS011;12743;52.262;6.172;2024-01-15T04:48:53;4.28;;;0.20;;
24585;SDS011;12743;52.262;6.172;2024-01-15T04:51:20;5.28;;;0.57;;
24585;SDS011;12743;52.262;6.172;2024-01-15T04:53:47;3.30;;;0.20;;
24585;SDS011;12743;52.262;6.172;2024-01-15T04:56:13;4.68;;;0.43;;
24585;SDS011;12743;52.262;6.172;2024-01-15T04:58:40;4.22;;;0.30;;
24585;SDS011;12743;52.262;6.172;2024-01-15T05:01:07;3.65;;;0.13;;
24585;SDS011;12743;52.262;6.172;2024-01-15T05:03:35;4.40;;;0.77;;
24585;SDS011;12743;52.262;6.172;2024-01-15T05:06:01;8.23;;;1.38;;
24585;SDS011;12743;52.262;6.172;2024-01-15T05:08:29;6.47;;;1.30;;
24585;SDS011;12743;52.262;6.172;2024-01-15T05:10:56;7.97;;;1.00;;
24585;SDS011;12743;52.262;6.172;2024-01-15T05:13:22;4.38;;;0.50;;
24585;SDS011;12743;52.262;6.172;2024-01-15T05:15:49;6.25;;;1.48;;
24585;SDS011;12743;52.262;6.172;2024-01-15T05:18:16;3.67;;;0.50;;
24585;SDS011;12743;52.262;6.172;2024-01-15T05:20:43;8.55;;;0.40;;
24585;SDS011;12743;52.262;6.172;2024-01-15T05:23:10;5.78;;;0.45;;
24585;SDS011;12743;52.262;6.172;2024-01-15T05:25:36;3.15;;;0.20;;
24585;SDS011;12743;52.262;6.172;2024-01-15T05:28:04;7.20;;;0.47;;
24585;SDS011;12743;52.262;6.172;2024-01-15T05:30:31;4.30;;;0.20;;
24585;SDS011;12743;52.262;6.172;2024-01-15T05:32:58;5.18;;;0.32;;
24585;SDS011;12743;52.262;6.172;2024-01-15T05:35:26;6.53;;;0.20;;
24585;SDS011;12743;52.262;6.172;2024-01-15T05:37:53;3.17;;;0.10;;
24585;SDS011;12743;52.262;6.172;2024-01-15T05:40:20;2.08;;;0.10;;
24585;SDS011;12743;52.262;6.172;2024-01-15T05:42:46;3.70;;;0.10;;
24585;SDS011;12743;52.262;6.172;2024-01-15T05:45:13;2.25;;;0.20;;
24585;SDS011;12743;52.262;6.172;2024-01-15T05:47:40;3.38;;;0.30;;
24585;SDS011;12743;52.262;6.172;2024-01-15T05:50:08;3.58;;;0.40;;
24585;SDS011;12743;52.262;6.172;2024-01-15T05:52:35;4.18;;;0.30;;
24585;SDS011;12743;52.262;6.172;2024-01-15T05:55:01;1.75;;;0.10;;
24585;SDS011;12743;52.262;6.172;2024-01-15T05:57:28;3.65;;;0.30;;
24585;SDS011;12743;52.262;6.172;2024-01-15T05:59:55;4.05;;;0.13;;
24585;SDS011;12743;52.262;6.172;2024-01-15T06:02:22;7.45;;;0.40;;
24585;SDS011;12743;52.262;6.172;2024-01-15T06:04:48;12.18;;;0.40;;
24585;SDS011;12743;52.262;6.172;2024-01-15T06:07:15;6.45;;;0.73;;
24585;SDS011;12743;52.262;6.172;2024-01-15T06:09:42;6.95;;;0.40;;
24585;SDS011;12743;52.262;6.172;2024-01-15T06:12:09;5.95;;;0.57;;
24585;SDS011;12743;52.262;6.172;2024-01-15T06:14:36;8.13;;;0.90;;
24585;SDS011;12743;52.262;6.172;2024-01-15T06:17:03;8.98;;;0.68;;
24585;SDS011;12743;52.262;6.172;2024-01-15T06:19:29;10.27;;;1.15;;
24585;SDS011;12743;52.262;6.172;2024-01-15T06:21:56;9.77;;;2.30;;
24585;SDS011;12743;52.262;6.172;2024-01-15T06:24:23;6.05;;;0.98;;
24585;SDS011;12743;52.262;6.172;2024-01-15T06:26:50;5.00;;;1.00;;
24585;SDS011;12743;52.262;6.172;2024-01-15T06:29:17;4.35;;;0.93;;
24585;SDS011;12743;52.262;6.172;2024-01-15T06:31:43;3.47;;;0.85;;
24585;SDS011;12743;52.262;6.172;2024-01-15T06:34:10;6.45;;;1.30;;
24585;SDS011;12743;52.262;6.172;2024-01-15T06:36:37;7.20;;;0.95;;
24585;SDS011;12743;52.262;6.172;2024-01-15T06:39:04;5.43;;;0.70;;
24585;SDS011;12743;52.262;6.172;2024-01-15T06:41:31;3.60;;;0.93;;
24585;SDS011;12743;52.262;6.172;2024-01-15T06:43:58;5.85;;;0.90;;
24585;SDS011;12743;52.262;6.172;2024-01-15T06:46:25;7.72;;;1.00;;
24585;SDS011;12743;52.262;6.172;2024-01-15T06:48:51;6.07;;;1.00;;
24585;SDS011;12743;52.262;6.172;2024-01-15T06:51:18;4.97;;;0.82;;
24585;SDS011;12743;52.262;6.172;2024-01-15T06:53:45;3.67;;;0.60;;
24585;SDS011;12743;52.262;6.172;2024-01-15T06:56:11;5.30;;;0.63;;
24585;SDS011;12743;52.262;6.172;2024-01-15T06:58:38;7.30;;;0.65;;
24585;SDS011;12743;52.262;6.172;2024-01-15T07:01:05;8.90;;;0.98;;
24585;SDS011;12743;52.262;6.172;2024-01-15T07:03:32;6.28;;;0.70;;
24585;SDS011;12743;52.262;6.172;2024-01-15T07:05:59;7.10;;;0.60;;
24585;SDS011;12743;52.262;6.172;2024-01-15T07:08:26;6.35;;;0.70;;
24585;SDS011;12743;52.262;6.172;2024-01-15T07:10:52;5.82;;;0.35;;
24585;SDS011;12743;52.262;6.172;2024-01-15T07:13:19;4.05;;;0.40;;
24585;SDS011;12743;52.262;6.172;2024-01-15T07:15:46;7.38;;;0.47;;
24585;SDS011;12743;52.262;6.172;2024-01-15T07:18:12;7.45;;;0.30;;
24585;SDS011;12743;52.262;6.172;2024-01-15T07:20:39;5.43;;;0.70;;
24585;SDS011;12743;52.262;6.172;2024-01-15T07:23:06;5.82;;;0.45;;
24585;SDS011;12743;52.262;6.172;2024-01-15T07:25:33;3.20;;;0.40;;
24585;SDS011;12743;52.262;6.172;2024-01-15T07:28:00;6.22;;;0.50;;
24585;SDS011;12743;52.262;6.172;2024-01-15T07:30:26;3.97;;;0.50;;
24585;SDS011;12743;52.262;6.172;2024-01-15T07:32:53;6.53;;;0.50;;
24585;SDS011;12743;52.262;6.172;2024-01-15T07:35:20;2.03;;;0.30;;
24585;SDS011;12743;52.262;6.172;2024-01-15T07:37:47;4.15;;;0.55;;
24585;SDS011;12743;52.262;6.172;2024-01-15T07:40:14;7.15;;;0.63;;
24585;SDS011;12743;52.262;6.172;2024-01-15T07:42:41;6.07;;;0.80;;
24585;SDS011;12743;52.262;6.172;2024-01-15T07:45:09;7.47;;;0.50;;
24585;SDS011;12743;52.262;6.172;2024-01-15T07:47:37;6.07;;;0.70;;
24585;SDS011;12743;52.262;6.172;2024-01-15T07:50:03;6.15;;;0.68;;
24585;SDS011;12743;52.262;6.172;2024-01-15T07:52:32;8.88;;;0.63;;
24585;SDS011;12743;52.262;6.172;2024-01-15T07:54:58;5.00;;;0.50;;
24585;SDS011;12743;52.262;6.172;2024-01-15T07:57:30;6.57;;;0.70;;
24585;SDS011;12743;52.262;6.172;2024-01-15T07:59:57;6.55;;;0.50;;
24585;SDS011;12743;52.262;6.172;2024-01-15T08:02:24;4.30;;;0.45;;
24585;SDS011;12743;52.262;6.172;2024-01-15T08:04:51;5.07;;;0.63;;
24585;SDS011;12743;52.262;6.172;2024-01-15T08:07:17;8.27;;;0.70;;
24585;SDS011;12743;52.262;6.172;2024-01-15T08:09:44;6.68;;;0.88;;
24585;SDS011;12743;52.262;6.172;2024-01-15T08:12:13;8.63;;;1.10;;
24585;SDS011;12743;52.262;6.172;2024-01-15T08:14:40;7.90;;;0.85;;
24585;SDS011;12743;52.262;6.172;2024-01-15T08:17:06;7.05;;;0.80;;
24585;SDS011;12743;52.262;6.172;2024-01-15T08:19:33;6.15;;;0.73;;
24585;SDS011;12743;52.262;6.172;2024-01-15T08:22:00;7.93;;;1.33;;
24585;SDS011;12743;52.262;6.172;2024-01-15T08:24:27;8.27;;;0.90;;
24585;SDS011;12743;52.262;6.172;2024-01-15T08:26:55;7.72;;;0.82;;
24585;SDS011;12743;52.262;6.172;2024-01-15T08:29:22;7.93;;;1.27;;
24585;SDS011;12743;52.262;6.172;2024-01-15T08:31:50;4.95;;;0.70;;
24585;SDS011;12743;52.262;6.172;2024-01-15T08:34:17;5.25;;;1.13;;
24585;SDS011;12743;52.262;6.172;2024-01-15T08:36:44;8.95;;;0.90;;
24585;SDS011;12743;52.262;6.172;2024-01-15T08:39:11;6.32;;;0.45;;
24585;SDS011;12743;52.262;6.172;2024-01-15T08:41:38;5.63;;;0.93;;
24585;SDS011;12743;52.262;6.172;2024-01-15T08:44:05;4.53;;;1.00;;
24585;SDS011;12743;52.262;6.172;2024-01-15T08:46:32;6.85;;;1.00;;
24585;SDS011;12743;52.262;6.172;2024-01-15T08:48:58;8.32;;;1.73;;
24585;SDS011;12743;52.262;6.172;2024-01-15T08:51:25;8.77;;;1.88;;
24585;SDS011;12743;52.262;6.172;2024-01-15T08:53:52;7.03;;;1.33;;
24585;SDS011;12743;52.262;6.172;2024-01-15T08:56:18;5.03;;;1.20;;
24585;SDS011;12743;52.262;6.172;2024-01-15T08:58:45;7.32;;;0.90;;
24585;SDS011;12743;52.262;6.172;2024-01-15T09:01:12;8.00;;;1.33;;
24585;SDS011;12743;52.262;6.172;2024-01-15T09:03:40;9.48;;;1.58;;
24585;SDS011;12743;52.262;6.172;2024-01-15T09:06:09;9.07;;;2.55;;
24585;SDS011;12743;52.262;6.172;2024-01-15T09:08:36;6.72;;;1.23;;
24585;SDS011;12743;52.262;6.172;2024-01-15T09:11:03;7.75;;;1.38;;
24585;SDS011;12743;52.262;6.172;2024-01-15T09:13:30;7.10;;;1.10;;
24585;SDS011;12743;52.262;6.172;2024-01-15T09:15:57;10.02;;;1.75;;
24585;SDS011;12743;52.262;6.172;2024-01-15T09:18:24;5.10;;;0.77;;
24585;SDS011;12743;52.262;6.172;2024-01-15T09:20:51;7.15;;;1.25;;
24585;SDS011;12743;52.262;6.172;2024-01-15T09:23:18;6.38;;;0.63;;
24585;SDS011;12743;52.262;6.172;2024-01-15T09:25:45;7.60;;;0.90;;
24585;SDS011;12743;52.262;6.172;2024-01-15T09:28:11;8.95;;;0.85;;
24585;SDS011;12743;52.262;6.172;2024-01-15T09:30:38;5.35;;;0.60;;
24585;SDS011;12743;52.262;6.172;2024-01-15T09:33:05;7.85;;;0.73;;
24585;SDS011;12743;52.262;6.172;2024-01-15T09:35:32;5.82;;;0.88;;
24585;SDS011;12743;52.262;6.172;2024-01-15T09:37:58;11.02;;;1.30;;
24585;SDS011;12743;52.262;6.172;2024-01-15T09:40:25;5.15;;;1.00;;
24585;SDS011;12743;52.262;6.172;2024-01-15T09:42:57;8.25;;;1.73;;
24585;SDS011;12743;52.262;6.172;2024-01-15T09:45:24;12.30;;;2.25;;
24585;SDS011;12743;52.262;6.172;2024-01-15T09:47:51;10.02;;;2.20;;
24585;SDS011;12743;52.262;6.172;2024-01-15T09:50:18;10.10;;;2.45;;
24585;SDS011;12743;52.262;6.172;2024-01-15T09:52:44;9.32;;;1.92;;
24585;SDS011;12743;52.262;6.172;2024-01-15T09:55:12;9.43;;;1.88;;
24585;SDS011;12743;52.262;6.172;2024-01-15T09:57:40;10.85;;;2.00;;
24585;SDS011;12743;52.262;6.172;2024-01-15T10:00:07;6.72;;;1.70;;
24585;SDS011;12743;52.262;6.172;2024-01-15T10:02:34;9.27;;;2.22;;
24585;SDS011;12743;52.262;6.172;2024-01-15T10:05:02;8.55;;;1.85;;
24585;SDS011;12743;52.262;6.172;2024-01-15T10:07:29;9.63;;;1.60;;
24585;SDS011;12743;52.262;6.172;2024-01-15T10:09:57;8.65;;;1.65;;
24585;SDS011;12743;52.262;6.172;2024-01-15T10:12:23;10.50;;;1.80;;
24585;SDS011;12743;52.262;6.172;2024-01-15T10:14:51;10.27;;;0.98;;
24585;SDS011;12743;52.262;6.172;2024-01-15T10:17:17;6.20;;;0.90;;
24585;SDS011;12743;52.262;6.172;2024-01-15T10:19:47;6.35;;;0.80;;
24585;SDS011;12743;52.262;6.172;2024-01-15T10:22:16;6.72;;;0.90;;
24585;SDS011;12743;52.262;6.172;2024-01-15T10:24:44;6.70;;;0.55;;
24585;SDS011;12743;52.262;6.172;2024-01-15T10:27:14;5.60;;;0.70;;
24585;SDS011;12743;52.262;6.172;2024-01-15T10:29:41;5.13;;;0.60;;
24585;SDS011;12743;52.262;6.172;2024-01-15T10:32:08;4.65;;;0.40;;
24585;SDS011;12743;52.262;6.172;2024-01-15T10:34:38;4.28;;;0.60;;
24585;SDS011;12743;52.262;6.172;2024-01-15T10:37:07;6.00;;;0.85;;
24585;SDS011;12743;52.262;6.172;2024-01-15T10:39:34;5.25;;;0.52;;
24585;SDS011;12743;52.262;6.172;2024-01-15T10:42:02;5.60;;;0.80;;
24585;SDS011;12743;52.262;6.172;2024-01-15T10:44:29;8.52;;;0.45;;
24585;SDS011;12743;52.262;6.172;2024-01-15T10:46:56;8.55;;;0.70;;
24585;SDS011;12743;52.262;6.172;2024-01-15T10:49:23;4.45;;;0.60;;
24585;SDS011;12743;52.262;6.172;2024-01-15T10:51:58;8.80;;;0.60;;
24585;SDS011;12743;52.262;6.172;2024-01-15T10:54:25;7.88;;;0.70;;
24585;SDS011;12743;52.262;6.172;2024-01-15T10:56:53;7.53;;;1.05;;
24585;SDS011;12743;52.262;6.172;2024-01-15T10:59:22;5.22;;;0.47;;
24585;SDS011;12743;52.262;6.172;2024-01-15T11:01:49;7.57;;;0.47;;
24585;SDS011;12743;52.262;6.172;2024-01-15T11:04:23;9.35;;;0.90;;
24585;SDS011;12743;52.262;6.172;2024-01-15T11:06:51;6.20;;;0.40;;
24585;SDS011;12743;52.262;6.172;2024-01-15T11:09:23;7.40;;;0.63;;
24585;SDS011;12743;52.262;6.172;2024-01-15T11:11:52;5.80;;;0.55;;
24585;SDS011;12743;52.262;6.172;2024-01-15T11:14:39;6.28;;;0.50;;
24585;SDS011;12743;52.262;6.172;2024-01-15T11:17:12;9.02;;;0.93;;
24585;SDS011;12743;52.262;6.172;2024-01-15T11:19:46;6.27;;;0.70;;
24585;SDS011;12743;52.262;6.172;2024-01-15T11:25:18;8.65;;;0.70;;
24585;SDS011;12743;52.262;6.172;2024-01-15T11:27:47;7.07;;;0.55;;
24585;SDS011;12743;52.262;6.172;2024-01-15T11:30:19;6.93;;;0.95;;
24585;SDS011;12743;52.262;6.172;2024-01-15T11:32:46;8.05;;;0.75;;
24585;SDS011;12743;52.262;6.172;2024-01-15T11:35:13;8.10;;;0.88;;
24585;SDS011;12743;52.262;6.172;2024-01-15T11:40:17;10.02;;;0.90;;
24585;SDS011;12743;52.262;6.172;2024-01-15T11:42:45;4.38;;;0.35;;
24585;SDS011;12743;52.262;6.172;2024-01-15T11:45:15;4.55;;;0.57;;
24585;SDS011;12743;52.262;6.172;2024-01-15T11:50:14;3.72;;;0.10;;
24585;SDS011;12743;52.262;6.172;2024-01-15T11:52:41;1.95;;;0.47;;
24585;SDS011;12743;52.262;6.172;2024-01-15T11:57:46;4.57;;;0.20;;
24585;SDS011;12743;52.262;6.172;2024-01-15T12:00:18;1.70;;;0.10;;
24585;SDS011;12743;52.262;6.172;2024-01-15T12:02:46;1.63;;;0.10;;
24585;SDS011;12743;52.262;6.172;2024-01-15T12:05:14;3.75;;;0.30;;
24585;SDS011;12743;52.262;6.172;2024-01-15T12:07:43;2.83;;;0.10;;
24585;SDS011;12743;52.262;6.172;2024-01-15T12:10:10;4.93;;;0.10;;
24585;SDS011;12743;52.262;6.172;2024-01-15T12:12:43;1.52;;;0.10;;
24585;SDS011;12743;52.262;6.172;2024-01-15T12:15:29;2.38;;;0.10;;
24585;SDS011;12743;52.262;6.172;2024-01-15T12:17:57;3.38;;;0.10;;
24585;SDS011;12743;52.262;6.172;2024-01-15T12:20:25;2.42;;;0.10;;
24585;SDS011;12743;52.262;6.172;2024-01-15T12:22:52;2.45;;;0.30;;
24585;SDS011;12743;52.262;6.172;2024-01-15T12:25:28;8.45;;;0.30;;
24585;SDS011;12743;52.262;6.172;2024-01-15T12:27:55;2.03;;;0.03;;
24585;SDS011;12743;52.262;6.172;2024-01-15T12:30:22;3.70;;;0.20;;
24585;SDS011;12743;52.262;6.172;2024-01-15T12:32:49;5.78;;;0.38;;
24585;SDS011;12743;52.262;6.172;2024-01-15T12:35:16;5.03;;;0.38;;
24585;SDS011;12743;52.262;6.172;2024-01-15T12:37:43;3.75;;;0.30;;
24585;SDS011;12743;52.262;6.172;2024-01-15T12:40:12;7.20;;;0.28;;
24585;SDS011;12743;52.262;6.172;2024-01-15T12:42:40;12.75;;;0.52;;
24585;SDS011;12743;52.262;6.172;2024-01-15T12:45:07;8.52;;;0.30;;
24585;SDS011;12743;52.262;6.172;2024-01-15T12:47:38;10.18;;;0.95;;
24585;SDS011;12743;52.262;6.172;2024-01-15T12:50:06;4.22;;;0.20;;
24585;SDS011;12743;52.262;6.172;2024-01-15T12:52:45;9.63;;;0.30;;
24585;SDS011;12743;52.262;6.172;2024-01-15T12:55:13;5.13;;;0.30;;
24585;SDS011;12743;52.262;6.172;2024-01-15T12:57:40;7.40;;;0.60;;
24585;SDS011;12743;52.262;6.172;2024-01-15T13:00:07;4.28;;;0.20;;
24585;SDS011;12743;52.262;6.172;2024-01-15T13:02:41;7.00;;;0.77;;
24585;SDS011;12743;52.262;6.172;2024-01-15T13:05:09;7.25;;;0.30;;
24585;SDS011;12743;52.262;6.172;2024-01-15T13:07:38;8.13;;;0.60;;
24585;SDS011;12743;52.262;6.172;2024-01-15T13:10:06;8.13;;;0.35;;
24585;SDS011;12743;52.262;6.172;2024-01-15T13:12:33;7.13;;;0.60;;
24585;SDS011;12743;52.262;6.172;2024-01-15T13:15:00;4.90;;;0.32;;
24585;SDS011;12743;52.262;6.172;2024-01-15T13:17:29;9.35;;;0.57;;
24585;SDS011;12743;52.262;6.172;2024-01-15T13:19:56;7.43;;;0.93;;
24585;SDS011;12743;52.262;6.172;2024-01-15T13:22:23;9.15;;;0.57;;
24585;SDS011;12743;52.262;6.172;2024-01-15T13:24:55;8.43;;;0.32;;
24585;SDS011;12743;52.262;6.172;2024-01-15T13:27:22;6.80;;;0.57;;
24585;SDS011;12743;52.262;6.172;2024-01-15T13:29:49;5.82;;;0.40;;
24585;SDS011;12743;52.262;6.172;2024-01-15T13:32:22;5.88;;;0.32;;
24585;SDS011;12743;52.262;6.172;2024-01-15T13:34:52;7.20;;;0.32;;
24585;SDS011;12743;52.262;6.172;2024-01-15T13:37:19;5.95;;;0.43;;
24585;SDS011;12743;52.262;6.172;2024-01-15T13:39:46;6.75;;;0.32;;
24585;SDS011;12743;52.262;6.172;2024-01-15T13:42:12;6.82;;;0.65;;
24585;SDS011;12743;52.262;6.172;2024-01-15T13:44:39;5.25;;;0.30;;
24585;SDS011;12743;52.262;6.172;2024-01-15T13:47:06;9.63;;;0.75;;
24585;SDS011;12743;52.262;6.172;2024-01-15T13:49:33;6.03;;;0.40;;
24585;SDS011;12743;52.262;6.172;2024-01-15T13:52:00;5.70;;;0.35;;
24585;SDS011;12743;52.262;6.172;2024-01-15T13:54:30;5.15;;;0.30;;
24585;SDS011;12743;52.262;6.172;2024-01-15T13:57:14;6.47;;;0.68;;
24585;SDS011;12743;52.262;6.172;2024-01-15T13:59:41;4.85;;;0.20;;
24585;SDS011;12743;52.262;6.172;2024-01-15T14:02:08;7.30;;;0.38;;
24585;SDS011;12743;52.262;6.172;2024-01-15T14:04:37;6.80;;;0.28;;
24585;SDS011;12743;52.262;6.172;2024-01-15T14:07:04;3.83;;;0.28;;
24585;SDS011;12743;52.262;6.172;2024-01-15T14:09:31;8.07;;;0.60;;
24585;SDS011;12743;52.262;6.172;2024-01-15T14:11:58;6.38;;;0.30;;
24585;SDS011;12743;52.262;6.172;2024-01-15T14:14:25;6.78;;;0.40;;
24585;SDS011;12743;52.262;6.172;2024-01-15T14:16:52;6.22;;;0.75;;
24585;SDS011;12743;52.262;6.172;2024-01-15T14:19:19;3.22;;;0.20;;
24585;SDS011;12743;52.262;6.172;2024-01-15T14:21:47;5.28;;;0.30;;
24585;SDS011;12743;52.262;6.172;2024-01-15T14:24:14;6.60;;;0.20;;
24585;SDS011;12743;52.262;6.172;2024-01-15T14:26:42;5.97;;;0.30;;
24585;SDS011;12743;52.262;6.172;2024-01-15T14:29:09;5.00;;;0.45;;
24585;SDS011;12743;52.262;6.172;2024-01-15T14:31:35;5.68;;;0.52;;
24585;SDS011;12743;52.262;6.172;2024-01-15T14:34:02;5.00;;;0.30;;
24585;SDS011;12743;52.262;6.172;2024-01-15T14:36:29;4.50;;;0.38;;
24585;SDS011;12743;52.262;6.172;2024-01-15T14:38:56;7.00;;;0.30;;
24585;SDS011;12743;52.262;6.172;2024-01-15T14:41:23;5.05;;;0.30;;
24585;SDS011;12743;52.262;6.172;2024-01-15T14:43:50;9.30;;;0.60;;
24585;SDS011;12743;52.262;6.172;2024-01-15T14:46:17;4.65;;;0.32;;
24585;SDS011;12743;52.262;6.172;2024-01-15T14:48:43;7.55;;;0.30;;
24585;SDS011;12743;52.262;6.172;2024-01-15T14:51:11;6.25;;;0.63;;
24585;SDS011;12743;52.262;6.172;2024-01-15T14:53:38;13.43;;;0.63;;
24585;SDS011;12743;52.262;6.172;2024-01-15T14:56:05;6.00;;;0.40;;
24585;SDS011;12743;52.262;6.172;2024-01-15T14:58:34;9.05;;;0.38;;